Etusivu
METAR-TAF:

METAR-TAF

Lentoasemat :

Tacoma Narrows Airport

Tacoma, Washington, Yhdysvallat

Leveyspiiri: 47-16-03N, Pituuspiiri: 122-34-34W, korkeus merenpinnasta: 96 m

Tämänhetkinen sää

Tämä raportti tehtiin 8 minuuttia sitten, kello 12.53 UTC
tyyntä
Lämpötila 8°C
Kosteus 93%
Ilmanpaine 1015 hPa
Näkyvyys: 3.2 km
Pilvistä 2300 ft:n korkeudessa
sadetta, utua

METAR: KTIW 151253Z AUTO 00000KT 2SM RA BR OVC023 08/07 A2997 RMK AO2 SLP150 T00780072 PNO $

Aika: 05:01 (13:01 UTC)


TAF: puuttuu

Säähavainnot ja -ennusteet yli 4000 lentoasemalta (METAR- ja TAF-raportit).

Käytössä olevat sääasemat on merkitty karttaan keltaisilla ja punaisilla pisteillä.

Aseta hiiri pisteen päälle nähdäksesi sääaseman nimen.

Klikkaa sitten nähdäksesi säähavainnot ja -ennusteet.

Kartan vaihtaminen: klikkaa mustalla rastilla varustettuja vihreitä pisteitä, niin voit zoomata sisään; viivalla varustettua vihreää pistettä, niin voit zoomata ulos tai vihreitä nuolia, niin pääset viereisille kartoille.


METAR-TAF: